sensor_id;sensor_type;location;lat;lon;timestamp;temperature;humidity
21811;DHT22;11067;48.788;9.208;2022-08-19T00:01:26;21.90;99.90
21811;DHT22;11067;48.788;9.208;2022-08-19T00:03:52;21.80;99.90
21811;DHT22;11067;48.788;9.208;2022-08-19T00:06:18;21.90;99.90
21811;DHT22;11067;48.788;9.208;2022-08-19T00:08:44;21.80;99.90
21811;DHT22;11067;48.788;9.208;2022-08-19T00:11:10;21.80;99.90
21811;DHT22;11067;48.788;9.208;2022-08-19T00:13:36;21.80;99.90
21811;DHT22;11067;48.788;9.208;2022-08-19T00:16:05;21.70;99.90
21811;DHT22;11067;48.788;9.208;2022-08-19T00:18:32;21.70;99.90
21811;DHT22;11067;48.788;9.208;2022-08-19T00:20:58;21.70;99.90
21811;DHT22;11067;48.788;9.208;2022-08-19T00:23:25;21.70;99.90
21811;DHT22;11067;48.788;9.208;2022-08-19T00:25:50;21.80;99.90
21811;DHT22;11067;48.788;9.208;2022-08-19T00:28:16;21.70;99.90
21811;DHT22;11067;48.788;9.208;2022-08-19T00:30:41;21.70;99.90
21811;DHT22;11067;48.788;9.208;2022-08-19T00:33:07;21.70;99.90
21811;DHT22;11067;48.788;9.208;2022-08-19T00:35:33;21.70;99.90
21811;DHT22;11067;48.788;9.208;2022-08-19T00:37:59;21.70;99.90
21811;DHT22;11067;48.788;9.208;2022-08-19T00:40:25;21.60;99.90
21811;DHT22;11067;48.788;9.208;2022-08-19T00:42:51;21.60;99.90
21811;DHT22;11067;48.788;9.208;2022-08-19T00:45:25;21.60;99.90
21811;DHT22;11067;48.788;9.208;2022-08-19T00:47:51;21.60;99.90
21811;DHT22;11067;48.788;9.208;2022-08-19T00:50:18;21.60;99.90
21811;DHT22;11067;48.788;9.208;2022-08-19T00:52:47;21.50;99.90
21811;DHT22;11067;48.788;9.208;2022-08-19T00:55:20;21.50;99.90
21811;DHT22;11067;48.788;9.208;2022-08-19T00:57:53;21.50;99.90
21811;DHT22;11067;48.788;9.208;2022-08-19T01:00:20;21.50;99.90
21811;DHT22;11067;48.788;9.208;2022-08-19T01:02:46;21.50;99.90
21811;DHT22;11067;48.788;9.208;2022-08-19T01:05:16;21.50;99.90
21811;DHT22;11067;48.788;9.208;2022-08-19T01:07:44;21.50;99.90
21811;DHT22;11067;48.788;9.208;2022-08-19T01:10:15;21.50;99.90
21811;DHT22;11067;48.788;9.208;2022-08-19T01:12:41;21.50;99.90
21811;DHT22;11067;48.788;9.208;2022-08-19T01:15:10;21.50;99.90
21811;DHT22;11067;48.788;9.208;2022-08-19T01:17:38;21.50;99.90
21811;DHT22;11067;48.788;9.208;2022-08-19T01:20:06;21.50;99.90
21811;DHT22;11067;48.788;9.208;2022-08-19T01:22:45;21.60;99.90
21811;DHT22;11067;48.788;9.208;2022-08-19T01:25:15;21.50;99.90
21811;DHT22;11067;48.788;9.208;2022-08-19T01:27:46;21.40;99.90
21811;DHT22;11067;48.788;9.208;2022-08-19T01:30:22;21.50;99.90
21811;DHT22;11067;48.788;9.208;2022-08-19T01:32:49;21.40;99.90
21811;DHT22;11067;48.788;9.208;2022-08-19T01:35:15;21.40;99.90
21811;DHT22;11067;48.788;9.208;2022-08-19T01:37:49;21.40;99.90
21811;DHT22;11067;48.788;9.208;2022-08-19T01:40:16;21.40;99.90
21811;DHT22;11067;48.788;9.208;2022-08-19T01:42:41;21.30;99.90
21811;DHT22;11067;48.788;9.208;2022-08-19T01:45:08;21.30;99.90
21811;DHT22;11067;48.788;9.208;2022-08-19T01:47:35;21.40;99.90
21811;DHT22;11067;48.788;9.208;2022-08-19T01:50:01;21.40;99.90
21811;DHT22;11067;48.788;9.208;2022-08-19T01:52:27;21.30;99.90
21811;DHT22;11067;48.788;9.208;2022-08-19T01:54:52;21.30;99.90
21811;DHT22;11067;48.788;9.208;2022-08-19T01:57:18;21.30;99.90
21811;DHT22;11067;48.788;9.208;2022-08-19T01:59:44;21.30;99.90
21811;DHT22;11067;48.788;9.208;2022-08-19T02:02:10;21.30;99.90
21811;DHT22;11067;48.788;9.208;2022-08-19T02:04:37;21.20;99.90
21811;DHT22;11067;48.788;9.208;2022-08-19T02:07:06;21.30;99.90
21811;DHT22;11067;48.788;9.208;2022-08-19T02:09:33;21.30;99.90
21811;DHT22;11067;48.788;9.208;2022-08-19T02:11:59;21.40;99.90
21811;DHT22;11067;48.788;9.208;2022-08-19T02:14:24;21.30;99.90
21811;DHT22;11067;48.788;9.208;2022-08-19T02:16:50;21.40;99.90
21811;DHT22;11067;48.788;9.208;2022-08-19T02:19:16;21.30;99.90
21811;DHT22;11067;48.788;9.208;2022-08-19T02:21:42;21.20;99.90
21811;DHT22;11067;48.788;9.208;2022-08-19T02:24:09;21.30;99.90
21811;DHT22;11067;48.788;9.208;2022-08-19T02:26:34;21.30;99.90
21811;DHT22;11067;48.788;9.208;2022-08-19T02:29:00;21.20;99.90
21811;DHT22;11067;48.788;9.208;2022-08-19T02:31:26;21.20;99.90
21811;DHT22;11067;48.788;9.208;2022-08-19T02:33:53;21.20;99.90
21811;DHT22;11067;48.788;9.208;2022-08-19T02:36:20;21.10;99.90
21811;DHT22;11067;48.788;9.208;2022-08-19T02:38:46;21.10;99.90
21811;DHT22;11067;48.788;9.208;2022-08-19T02:41:18;21.00;99.90
21811;DHT22;11067;48.788;9.208;2022-08-19T02:43:45;21.00;99.90
21811;DHT22;11067;48.788;9.208;2022-08-19T02:46:19;21.10;99.90
21811;DHT22;11067;48.788;9.208;2022-08-19T02:48:53;21.00;99.90
21811;DHT22;11067;48.788;9.208;2022-08-19T02:51:22;21.00;99.90
21811;DHT22;11067;48.788;9.208;2022-08-19T02:53:48;20.90;99.90
21811;DHT22;11067;48.788;9.208;2022-08-19T02:56:13;20.80;99.90
21811;DHT22;11067;48.788;9.208;2022-08-19T02:58:40;20.90;99.90
21811;DHT22;11067;48.788;9.208;2022-08-19T03:01:05;20.90;99.90
21811;DHT22;11067;48.788;9.208;2022-08-19T03:03:31;20.80;99.90
21811;DHT22;11067;48.788;9.208;2022-08-19T03:06:14;20.80;99.90
21811;DHT22;11067;48.788;9.208;2022-08-19T03:08:44;20.80;99.90
21811;DHT22;11067;48.788;9.208;2022-08-19T03:11:18;20.80;99.90
21811;DHT22;11067;48.788;9.208;2022-08-19T03:13:45;20.70;99.90
21811;DHT22;11067;48.788;9.208;2022-08-19T03:16:12;20.70;99.90
21811;DHT22;11067;48.788;9.208;2022-08-19T03:18:38;20.70;99.90
21811;DHT22;11067;48.788;9.208;2022-08-19T03:21:04;20.70;99.90
21811;DHT22;11067;48.788;9.208;2022-08-19T03:23:29;20.70;99.90
21811;DHT22;11067;48.788;9.208;2022-08-19T03:25:55;20.70;99.90
21811;DHT22;11067;48.788;9.208;2022-08-19T03:28:21;20.70;99.90
21811;DHT22;11067;48.788;9.208;2022-08-19T03:30:57;20.70;99.90
21811;DHT22;11067;48.788;9.208;2022-08-19T03:33:25;20.60;99.90
21811;DHT22;11067;48.788;9.208;2022-08-19T03:36:10;20.50;99.90
21811;DHT22;11067;48.788;9.208;2022-08-19T03:38:38;20.50;99.90
21811;DHT22;11067;48.788;9.208;2022-08-19T03:41:09;20.50;99.90
21811;DHT22;11067;48.788;9.208;2022-08-19T03:43:36;20.50;99.90
21811;DHT22;11067;48.788;9.208;2022-08-19T03:46:11;20.50;99.90
21811;DHT22;11067;48.788;9.208;2022-08-19T03:48:39;20.50;99.90
21811;DHT22;11067;48.788;9.208;2022-08-19T03:51:05;20.50;99.90
21811;DHT22;11067;48.788;9.208;2022-08-19T03:53:33;20.50;99.90
21811;DHT22;11067;48.788;9.208;2022-08-19T03:55:59;20.50;99.90
21811;DHT22;11067;48.788;9.208;2022-08-19T03:58:26;20.50;99.90
21811;DHT22;11067;48.788;9.208;2022-08-19T04:00:56;20.50;99.90
21811;DHT22;11067;48.788;9.208;2022-08-19T04:03:24;20.40;99.90
21811;DHT22;11067;48.788;9.208;2022-08-19T04:05:50;20.50;99.90
21811;DHT22;11067;48.788;9.208;2022-08-19T04:08:16;20.40;99.90
21811;DHT22;11067;48.788;9.208;2022-08-19T04:10:47;20.30;99.90
21811;DHT22;11067;48.788;9.208;2022-08-19T04:13:15;20.20;99.90
21811;DHT22;11067;48.788;9.208;2022-08-19T04:15:42;20.20;99.90
21811;DHT22;11067;48.788;9.208;2022-08-19T04:18:10;20.30;99.90
21811;DHT22;11067;48.788;9.208;2022-08-19T04:20:45;20.40;99.90
21811;DHT22;11067;48.788;9.208;2022-08-19T04:23:12;20.40;99.90
21811;DHT22;11067;48.788;9.208;2022-08-19T04:25:40;20.30;99.90
21811;DHT22;11067;48.788;9.208;2022-08-19T04:28:07;20.30;99.90
21811;DHT22;11067;48.788;9.208;2022-08-19T04:30:44;20.30;99.90
21811;DHT22;11067;48.788;9.208;2022-08-19T04:33:12;20.30;99.90
21811;DHT22;11067;48.788;9.208;2022-08-19T04:35:48;20.20;99.90
21811;DHT22;11067;48.788;9.208;2022-08-19T04:38:15;20.30;99.90
21811;DHT22;11067;48.788;9.208;2022-08-19T04:40:48;20.30;99.90
21811;DHT22;11067;48.788;9.208;2022-08-19T04:43:34;20.30;99.90
21811;DHT22;11067;48.788;9.208;2022-08-19T04:46:08;20.30;99.90
21811;DHT22;11067;48.788;9.208;2022-08-19T04:48:35;20.30;99.90
21811;DHT22;11067;48.788;9.208;2022-08-19T04:51:01;20.30;99.90
21811;DHT22;11067;48.788;9.208;2022-08-19T04:53:28;20.30;99.90
21811;DHT22;11067;48.788;9.208;2022-08-19T04:55:55;20.40;99.90
21811;DHT22;11067;48.788;9.208;2022-08-19T04:58:21;20.40;99.90
21811;DHT22;11067;48.788;9.208;2022-08-19T05:00:47;20.40;99.90
21811;DHT22;11067;48.788;9.208;2022-08-19T05:03:12;20.50;99.90
21811;DHT22;11067;48.788;9.208;2022-08-19T05:05:41;20.50;99.90
21811;DHT22;11067;48.788;9.208;2022-08-19T05:08:07;20.60;99.90
21811;DHT22;11067;48.788;9.208;2022-08-19T05:10:35;20.50;99.90
21811;DHT22;11067;48.788;9.208;2022-08-19T05:13:01;20.50;99.90
21811;DHT22;11067;48.788;9.208;2022-08-19T05:15:27;20.50;99.90
21811;DHT22;11067;48.788;9.208;2022-08-19T05:17:53;20.40;99.90
21811;DHT22;11067;48.788;9.208;2022-08-19T05:20:40;20.40;99.90
21811;DHT22;11067;48.788;9.208;2022-08-19T05:23:24;20.50;99.90
21811;DHT22;11067;48.788;9.208;2022-08-19T05:25:51;20.50;99.90
21811;DHT22;11067;48.788;9.208;2022-08-19T05:28:18;20.60;99.90
21811;DHT22;11067;48.788;9.208;2022-08-19T05:30:44;20.60;99.90
21811;DHT22;11067;48.788;9.208;2022-08-19T05:33:10;20.70;99.90
21811;DHT22;11067;48.788;9.208;2022-08-19T05:35:38;20.50;99.90
21811;DHT22;11067;48.788;9.208;2022-08-19T05:38:05;20.60;99.90
21811;DHT22;11067;48.788;9.208;2022-08-19T05:40:37;20.50;99.90
21811;DHT22;11067;48.788;9.208;2022-08-19T05:43:03;20.50;99.90
21811;DHT22;11067;48.788;9.208;2022-08-19T05:45:29;20.50;99.90
21811;DHT22;11067;48.788;9.208;2022-08-19T05:47:55;20.60;99.90
21811;DHT22;11067;48.788;9.208;2022-08-19T05:50:21;20.60;99.90
21811;DHT22;11067;48.788;9.208;2022-08-19T05:52:46;20.60;99.90
21811;DHT22;11067;48.788;9.208;2022-08-19T05:55:12;20.60;99.90
21811;DHT22;11067;48.788;9.208;2022-08-19T05:57:38;20.50;99.90
21811;DHT22;11067;48.788;9.208;2022-08-19T06:00:05;20.50;99.90
21811;DHT22;11067;48.788;9.208;2022-08-19T06:02:35;20.60;99.90
21811;DHT22;11067;48.788;9.208;2022-08-19T06:05:01;20.60;99.90
21811;DHT22;11067;48.788;9.208;2022-08-19T06:07:27;20.60;99.90
21811;DHT22;11067;48.788;9.208;2022-08-19T06:09:54;20.60;99.90
21811;DHT22;11067;48.788;9.208;2022-08-19T06:12:20;20.50;99.90
21811;DHT22;11067;48.788;9.208;2022-08-19T06:14:56;20.60;99.90
21811;DHT22;11067;48.788;9.208;2022-08-19T06:17:21;20.70;99.90
21811;DHT22;11067;48.788;9.208;2022-08-19T06:19:50;20.70;99.90
21811;DHT22;11067;48.788;9.208;2022-08-19T06:22:15;20.70;99.90
21811;DHT22;11067;48.788;9.208;2022-08-19T06:24:41;20.70;99.90
21811;DHT22;11067;48.788;9.208;2022-08-19T06:27:06;20.60;99.90
21811;DHT22;11067;48.788;9.208;2022-08-19T06:29:33;20.70;99.90
21811;DHT22;11067;48.788;9.208;2022-08-19T06:32:01;20.50;99.90
21811;DHT22;11067;48.788;9.208;2022-08-19T06:34:30;20.50;99.90
21811;DHT22;11067;48.788;9.208;2022-08-19T06:36:57;20.40;99.90
21811;DHT22;11067;48.788;9.208;2022-08-19T06:39:29;20.20;99.90
21811;DHT22;11067;48.788;9.208;2022-08-19T06:41:58;20.10;99.90
21811;DHT22;11067;48.788;9.208;2022-08-19T06:44:26;20.20;99.90
21811;DHT22;11067;48.788;9.208;2022-08-19T06:46:54;20.20;99.90
21811;DHT22;11067;48.788;9.208;2022-08-19T06:49:20;20.10;99.90
21811;DHT22;11067;48.788;9.208;2022-08-19T06:51:47;20.20;99.90
21811;DHT22;11067;48.788;9.208;2022-08-19T06:54:14;20.10;99.90
21811;DHT22;11067;48.788;9.208;2022-08-19T06:56:41;20.20;99.90
21811;DHT22;11067;48.788;9.208;2022-08-19T06:59:10;20.20;99.90
21811;DHT22;11067;48.788;9.208;2022-08-19T07:01:40;20.30;99.90
21811;DHT22;11067;48.788;9.208;2022-08-19T07:04:07;20.20;99.90
21811;DHT22;11067;48.788;9.208;2022-08-19T07:06:34;20.40;99.90
21811;DHT22;11067;48.788;9.208;2022-08-19T07:09:00;20.50;99.90
21811;DHT22;11067;48.788;9.208;2022-08-19T07:11:26;20.40;99.90
21811;DHT22;11067;48.788;9.208;2022-08-19T07:13:52;20.30;99.90
21811;DHT22;11067;48.788;9.208;2022-08-19T07:16:19;20.30;99.90
21811;DHT22;11067;48.788;9.208;2022-08-19T07:18:48;20.30;99.90
21811;DHT22;11067;48.788;9.208;2022-08-19T07:21:18;20.30;99.90
21811;DHT22;11067;48.788;9.208;2022-08-19T07:23:45;20.30;99.90
21811;DHT22;11067;48.788;9.208;2022-08-19T07:26:21;20.30;99.90
21811;DHT22;11067;48.788;9.208;2022-08-19T07:28:48;20.30;99.90
21811;DHT22;11067;48.788;9.208;2022-08-19T07:31:21;20.30;99.90
21811;DHT22;11067;48.788;9.208;2022-08-19T07:33:49;20.30;99.90
21811;DHT22;11067;48.788;9.208;2022-08-19T07:36:20;20.30;99.90
21811;DHT22;11067;48.788;9.208;2022-08-19T07:38:48;20.30;99.90
21811;DHT22;11067;48.788;9.208;2022-08-19T07:41:17;20.40;99.90
21811;DHT22;11067;48.788;9.208;2022-08-19T07:43:43;20.30;99.90
21811;DHT22;11067;48.788;9.208;2022-08-19T07:46:10;20.30;99.90
21811;DHT22;11067;48.788;9.208;2022-08-19T07:48:36;20.30;99.90
21811;DHT22;11067;48.788;9.208;2022-08-19T07:51:04;20.30;99.90
21811;DHT22;11067;48.788;9.208;2022-08-19T07:53:31;20.30;99.90
21811;DHT22;11067;48.788;9.208;2022-08-19T07:55:58;20.20;99.90
21811;DHT22;11067;48.788;9.208;2022-08-19T07:58:27;20.30;99.90
21811;DHT22;11067;48.788;9.208;2022-08-19T08:00:53;20.20;99.90
21811;DHT22;11067;48.788;9.208;2022-08-19T08:03:21;20.20;99.90
21811;DHT22;11067;48.788;9.208;2022-08-19T08:06:07;20.10;99.90
21811;DHT22;11067;48.788;9.208;2022-08-19T08:08:51;20.00;99.90
21811;DHT22;11067;48.788;9.208;2022-08-19T08:11:35;20.00;99.90
21811;DHT22;11067;48.788;9.208;2022-08-19T08:14:01;19.90;99.90
21811;DHT22;11067;48.788;9.208;2022-08-19T08:16:27;19.80;99.90
21811;DHT22;11067;48.788;9.208;2022-08-19T08:18:57;19.80;99.90
21811;DHT22;11067;48.788;9.208;2022-08-19T08:21:22;19.80;99.90
21811;DHT22;11067;48.788;9.208;2022-08-19T08:23:48;19.80;99.90
21811;DHT22;11067;48.788;9.208;2022-08-19T08:26:13;19.80;99.90
21811;DHT22;11067;48.788;9.208;2022-08-19T08:28:40;19.80;99.90
21811;DHT22;11067;48.788;9.208;2022-08-19T08:31:06;19.90;99.90
21811;DHT22;11067;48.788;9.208;2022-08-19T08:33:31;19.90;99.90
21811;DHT22;11067;48.788;9.208;2022-08-19T08:35:57;19.90;99.90
21811;DHT22;11067;48.788;9.208;2022-08-19T08:38:22;20.00;99.90
21811;DHT22;11067;48.788;9.208;2022-08-19T08:40:52;20.00;99.90
21811;DHT22;11067;48.788;9.208;2022-08-19T08:43:34;19.90;99.90
21811;DHT22;11067;48.788;9.208;2022-08-19T08:46:07;19.90;99.90
21811;DHT22;11067;48.788;9.208;2022-08-19T08:48:49;20.00;99.90
21811;DHT22;11067;48.788;9.208;2022-08-19T08:51:23;20.10;99.90
21811;DHT22;11067;48.788;9.208;2022-08-19T08:53:52;20.20;99.90
21811;DHT22;11067;48.788;9.208;2022-08-19T08:56:19;20.20;99.90
21811;DHT22;11067;48.788;9.208;2022-08-19T09:01:20;20.50;99.90
21811;DHT22;11067;48.788;9.208;2022-08-19T09:03:46;20.60;99.90
21811;DHT22;11067;48.788;9.208;2022-08-19T09:06:24;20.70;99.90
21811;DHT22;11067;48.788;9.208;2022-08-19T09:09:03;20.80;99.90
21811;DHT22;11067;48.788;9.208;2022-08-19T09:11:47;20.80;99.90
21811;DHT22;11067;48.788;9.208;2022-08-19T09:14:32;20.80;99.90
21811;DHT22;11067;48.788;9.208;2022-08-19T09:16:59;20.70;99.90
21811;DHT22;11067;48.788;9.208;2022-08-19T09:19:28;20.90;99.90
21811;DHT22;11067;48.788;9.208;2022-08-19T09:21:54;20.80;99.90
21811;DHT22;11067;48.788;9.208;2022-08-19T09:24:20;20.80;99.90
21811;DHT22;11067;48.788;9.208;2022-08-19T09:26:45;20.80;99.90
21811;DHT22;11067;48.788;9.208;2022-08-19T09:29:11;20.80;99.90
21811;DHT22;11067;48.788;9.208;2022-08-19T09:31:38;20.90;99.90
21811;DHT22;11067;48.788;9.208;2022-08-19T09:34:04;20.90;99.90
21811;DHT22;11067;48.788;9.208;2022-08-19T09:36:33;20.90;99.90
21811;DHT22;11067;48.788;9.208;2022-08-19T09:39:03;20.90;99.90
21811;DHT22;11067;48.788;9.208;2022-08-19T09:41:29;21.00;99.90
21811;DHT22;11067;48.788;9.208;2022-08-19T09:43:56;21.10;99.90
21811;DHT22;11067;48.788;9.208;2022-08-19T09:46:24;21.00;99.90
21811;DHT22;11067;48.788;9.208;2022-08-19T09:48:51;21.10;99.90
21811;DHT22;11067;48.788;9.208;2022-08-19T09:51:25;21.10;99.90
21811;DHT22;11067;48.788;9.208;2022-08-19T09:53:51;21.20;99.90
21811;DHT22;11067;48.788;9.208;2022-08-19T09:56:20;21.30;99.90
21811;DHT22;11067;48.788;9.208;2022-08-19T09:58:46;21.30;99.90
21811;DHT22;11067;48.788;9.208;2022-08-19T10:01:23;21.30;99.90
21811;DHT22;11067;48.788;9.208;2022-08-19T10:03:51;21.40;99.90
21811;DHT22;11067;48.788;9.208;2022-08-19T10:06:19;21.50;99.90
21811;DHT22;11067;48.788;9.208;2022-08-19T10:08:46;21.40;99.90
21811;DHT22;11067;48.788;9.208;2022-08-19T10:11:12;21.50;99.90
21811;DHT22;11067;48.788;9.208;2022-08-19T10:13:39;21.60;99.90
21811;DHT22;11067;48.788;9.208;2022-08-19T10:16:10;21.50;99.90
21811;DHT22;11067;48.788;9.208;2022-08-19T10:18:37;21.40;99.90
21811;DHT22;11067;48.788;9.208;2022-08-19T10:21:15;21.30;99.90
21811;DHT22;11067;48.788;9.208;2022-08-19T10:23:44;21.40;99.90
21811;DHT22;11067;48.788;9.208;2022-08-19T10:26:12;21.40;99.90
21811;DHT22;11067;48.788;9.208;2022-08-19T10:28:38;21.40;99.90
21811;DHT22;11067;48.788;9.208;2022-08-19T10:31:08;21.30;99.90
21811;DHT22;11067;48.788;9.208;2022-08-19T10:33:35;21.30;99.90
21811;DHT22;11067;48.788;9.208;2022-08-19T10:36:20;21.30;99.90
21811;DHT22;11067;48.788;9.208;2022-08-19T10:38:50;21.30;99.90
21811;DHT22;11067;48.788;9.208;2022-08-19T10:41:18;21.50;99.90
21811;DHT22;11067;48.788;9.208;2022-08-19T10:43:45;21.60;99.90
21811;DHT22;11067;48.788;9.208;2022-08-19T10:46:15;21.70;99.90
21811;DHT22;11067;48.788;9.208;2022-08-19T10:48:42;21.80;99.90
21811;DHT22;11067;48.788;9.208;2022-08-19T10:51:08;22.00;99.90
21811;DHT22;11067;48.788;9.208;2022-08-19T10:53:53;22.00;99.90
21811;DHT22;11067;48.788;9.208;2022-08-19T10:56:19;22.10;99.90
21811;DHT22;11067;48.788;9.208;2022-08-19T10:59:03;22.10;99.90
21811;DHT22;11067;48.788;9.208;2022-08-19T11:01:30;22.10;99.90
21811;DHT22;11067;48.788;9.208;2022-08-19T11:03:57;22.10;99.90
21811;DHT22;11067;48.788;9.208;2022-08-19T11:06:23;22.10;99.90
21811;DHT22;11067;48.788;9.208;2022-08-19T11:08:51;22.10;99.90
21811;DHT22;11067;48.788;9.208;2022-08-19T11:11:17;22.20;99.90
21811;DHT22;11067;48.788;9.208;2022-08-19T11:13:43;22.20;99.90
21811;DHT22;11067;48.788;9.208;2022-08-19T11:16:12;22.30;99.90
21811;DHT22;11067;48.788;9.208;2022-08-19T11:18:42;22.30;99.90
21811;DHT22;11067;48.788;9.208;2022-08-19T11:21:20;22.30;99.90
21811;DHT22;11067;48.788;9.208;2022-08-19T11:23:48;22.40;99.90
21811;DHT22;11067;48.788;9.208;2022-08-19T11:26:17;22.40;99.90
21811;DHT22;11067;48.788;9.208;2022-08-19T11:28:43;22.50;99.90
21811;DHT22;11067;48.788;9.208;2022-08-19T11:31:13;22.50;99.90
21811;DHT22;11067;48.788;9.208;2022-08-19T11:33:40;22.70;99.90
21811;DHT22;11067;48.788;9.208;2022-08-19T11:36:06;22.70;99.90
21811;DHT22;11067;48.788;9.208;2022-08-19T11:38:33;22.70;99.90
21811;DHT22;11067;48.788;9.208;2022-08-19T11:41:00;22.70;99.90
21811;DHT22;11067;48.788;9.208;2022-08-19T11:43:27;22.70;99.90
21811;DHT22;11067;48.788;9.208;2022-08-19T11:45:54;22.90;99.90
21811;DHT22;11067;48.788;9.208;2022-08-19T11:48:20;23.00;99.90
21811;DHT22;11067;48.788;9.208;2022-08-19T11:50:48;23.00;99.90
21811;DHT22;11067;48.788;9.208;2022-08-19T11:53:13;23.10;99.90
21811;DHT22;11067;48.788;9.208;2022-08-19T11:55:39;23.10;99.90
21811;DHT22;11067;48.788;9.208;2022-08-19T11:58:05;22.70;99.90
21811;DHT22;11067;48.788;9.208;2022-08-19T12:00:33;22.20;99.90
21811;DHT22;11067;48.788;9.208;2022-08-19T12:03:01;22.20;99.90
21811;DHT22;11067;48.788;9.208;2022-08-19T12:05:26;21.90;99.90
21811;DHT22;11067;48.788;9.208;2022-08-19T12:07:52;21.70;99.90
21811;DHT22;11067;48.788;9.208;2022-08-19T12:10:20;21.50;99.90
21811;DHT22;11067;48.788;9.208;2022-08-19T12:12:45;21.30;99.90
21811;DHT22;11067;48.788;9.208;2022-08-19T12:15:12;21.30;99.90
21811;DHT22;11067;48.788;9.208;2022-08-19T12:17:40;21.30;99.90
21811;DHT22;11067;48.788;9.208;2022-08-19T12:20:09;21.30;99.90
21811;DHT22;11067;48.788;9.208;2022-08-19T12:22:36;21.40;99.90
21811;DHT22;11067;48.788;9.208;2022-08-19T12:25:03;21.30;99.90
21811;DHT22;11067;48.788;9.208;2022-08-19T12:27:30;21.30;99.90
21811;DHT22;11067;48.788;9.208;2022-08-19T12:29:55;21.30;99.90
21811;DHT22;11067;48.788;9.208;2022-08-19T12:32:21;21.30;99.90
21811;DHT22;11067;48.788;9.208;2022-08-19T12:34:46;21.20;99.90
21811;DHT22;11067;48.788;9.208;2022-08-19T12:37:13;21.20;99.90
21811;DHT22;11067;48.788;9.208;2022-08-19T12:39:41;21.30;99.90
21811;DHT22;11067;48.788;9.208;2022-08-19T12:42:08;21.30;99.90
21811;DHT22;11067;48.788;9.208;2022-08-19T12:44:35;21.40;99.90
21811;DHT22;11067;48.788;9.208;2022-08-19T12:47:01;21.50;99.90
21811;DHT22;11067;48.788;9.208;2022-08-19T12:49:29;21.50;99.90
21811;DHT22;11067;48.788;9.208;2022-08-19T12:51:55;21.50;99.90
21811;DHT22;11067;48.788;9.208;2022-08-19T12:54:20;21.80;99.90
21811;DHT22;11067;48.788;9.208;2022-08-19T12:56:46;21.90;99.90
21811;DHT22;11067;48.788;9.208;2022-08-19T12:59:11;21.90;99.90
21811;DHT22;11067;48.788;9.208;2022-08-19T13:01:37;21.80;99.90
21811;DHT22;11067;48.788;9.208;2022-08-19T13:04:03;21.80;99.90
21811;DHT22;11067;48.788;9.208;2022-08-19T13:06:28;21.80;99.90
21811;DHT22;11067;48.788;9.208;2022-08-19T13:08:55;21.90;99.90
21811;DHT22;11067;48.788;9.208;2022-08-19T13:11:21;21.90;99.90
21811;DHT22;11067;48.788;9.208;2022-08-19T13:13:51;21.70;99.90
21811;DHT22;11067;48.788;9.208;2022-08-19T13:16:17;21.60;99.90
21811;DHT22;11067;48.788;9.208;2022-08-19T13:18:45;21.50;99.90
21811;DHT22;11067;48.788;9.208;2022-08-19T13:21:12;21.40;99.90
21811;DHT22;11067;48.788;9.208;2022-08-19T13:23:39;21.20;99.90
21811;DHT22;11067;48.788;9.208;2022-08-19T13:26:07;21.10;99.90
21811;DHT22;11067;48.788;9.208;2022-08-19T13:28:33;21.00;99.90
21811;DHT22;11067;48.788;9.208;2022-08-19T13:31:20;20.90;99.90
21811;DHT22;11067;48.788;9.208;2022-08-19T13:34:04;20.80;99.90
21811;DHT22;11067;48.788;9.208;2022-08-19T13:36:31;20.80;99.90
21811;DHT22;11067;48.788;9.208;2022-08-19T13:38:57;20.80;99.90
21811;DHT22;11067;48.788;9.208;2022-08-19T13:41:23;20.80;99.90
21811;DHT22;11067;48.788;9.208;2022-08-19T13:43:48;20.80;99.90
21811;DHT22;11067;48.788;9.208;2022-08-19T13:46:15;20.70;99.90
21811;DHT22;11067;48.788;9.208;2022-08-19T13:48:41;20.60;99.90
21811;DHT22;11067;48.788;9.208;2022-08-19T13:51:07;20.60;99.90
21811;DHT22;11067;48.788;9.208;2022-08-19T13:53:38;20.60;99.90
21811;DHT22;11067;48.788;9.208;2022-08-19T13:56:08;20.70;99.90
21811;DHT22;11067;48.788;9.208;2022-08-19T13:58:34;20.60;99.90
21811;DHT22;11067;48.788;9.208;2022-08-19T14:01:00;20.70;99.90
21811;DHT22;11067;48.788;9.208;2022-08-19T14:03:27;20.70;99.90
21811;DHT22;11067;48.788;9.208;2022-08-19T14:05:53;20.70;99.90
21811;DHT22;11067;48.788;9.208;2022-08-19T14:08:19;20.60;99.90
21811;DHT22;11067;48.788;9.208;2022-08-19T14:10:45;20.60;99.90
21811;DHT22;11067;48.788;9.208;2022-08-19T14:13:14;20.60;99.90
21811;DHT22;11067;48.788;9.208;2022-08-19T14:15:40;20.60;99.90
21811;DHT22;11067;48.788;9.208;2022-08-19T14:18:05;20.60;99.90
21811;DHT22;11067;48.788;9.208;2022-08-19T14:20:36;20.70;99.90
21811;DHT22;11067;48.788;9.208;2022-08-19T14:23:02;20.60;99.90
21811;DHT22;11067;48.788;9.208;2022-08-19T14:25:29;20.70;99.90
21811;DHT22;11067;48.788;9.208;2022-08-19T14:27:55;20.80;99.90
21811;DHT22;11067;48.788;9.208;2022-08-19T14:30:26;20.80;99.90
21811;DHT22;11067;48.788;9.208;2022-08-19T14:32:53;20.90;99.90
21811;DHT22;11067;48.788;9.208;2022-08-19T14:35:20;21.00;99.90
21811;DHT22;11067;48.788;9.208;2022-08-19T14:37:48;21.10;99.90
21811;DHT22;11067;48.788;9.208;2022-08-19T14:40:19;21.30;99.90
21811;DHT22;11067;48.788;9.208;2022-08-19T14:42:46;21.40;99.90
21811;DHT22;11067;48.788;9.208;2022-08-19T14:45:12;21.50;99.90
21811;DHT22;11067;48.788;9.208;2022-08-19T14:47:39;21.40;99.90
21811;DHT22;11067;48.788;9.208;2022-08-19T14:50:09;21.40;99.90
21811;DHT22;11067;48.788;9.208;2022-08-19T14:52:35;21.40;99.90
21811;DHT22;11067;48.788;9.208;2022-08-19T14:55:00;21.30;99.90
21811;DHT22;11067;48.788;9.208;2022-08-19T14:57:26;21.30;99.90
21811;DHT22;11067;48.788;9.208;2022-08-19T14:59:51;21.20;99.90
21811;DHT22;11067;48.788;9.208;2022-08-19T15:02:17;21.30;99.90
21811;DHT22;11067;48.788;9.208;2022-08-19T15:04:43;21.20;99.90
21811;DHT22;11067;48.788;9.208;2022-08-19T15:07:09;21.30;99.90
21811;DHT22;11067;48.788;9.208;2022-08-19T15:09:34;21.40;99.90
21811;DHT22;11067;48.788;9.208;2022-08-19T15:12:02;21.60;99.90
21811;DHT22;11067;48.788;9.208;2022-08-19T15:14:28;21.60;99.90
21811;DHT22;11067;48.788;9.208;2022-08-19T15:17:04;21.70;99.90
21811;DHT22;11067;48.788;9.208;2022-08-19T15:19:31;21.80;99.90
21811;DHT22;11067;48.788;9.208;2022-08-19T15:21:58;21.60;99.90
21811;DHT22;11067;48.788;9.208;2022-08-19T15:24:24;21.60;99.90
21811;DHT22;11067;48.788;9.208;2022-08-19T15:26:51;21.50;99.90
21811;DHT22;11067;48.788;9.208;2022-08-19T15:29:17;21.40;99.90
21811;DHT22;11067;48.788;9.208;2022-08-19T15:31:43;21.50;99.90
21811;DHT22;11067;48.788;9.208;2022-08-19T15:34:10;21.40;99.90
21811;DHT22;11067;48.788;9.208;2022-08-19T15:36:36;21.40;99.90
21811;DHT22;11067;48.788;9.208;2022-08-19T15:39:03;21.50;99.90